sensor_id;sensor_type;location;lat;lon;timestamp;P1;durP1;ratioP1;P2;durP2;ratioP2
870;SDS011;422;51.280;7.236;2023-07-13T00:00:24;5.40;;;2.70;;
870;SDS011;422;51.280;7.236;2023-07-13T00:02:52;5.00;;;2.37;;
870;SDS011;422;51.280;7.236;2023-07-13T00:05:19;5.27;;;2.60;;
870;SDS011;422;51.280;7.236;2023-07-13T00:07:47;5.17;;;3.03;;
870;SDS011;422;51.280;7.236;2023-07-13T00:10:14;5.60;;;2.40;;
870;SDS011;422;51.280;7.236;2023-07-13T00:12:44;5.80;;;2.63;;
870;SDS011;422;51.280;7.236;2023-07-13T00:15:12;5.03;;;2.80;;
870;SDS011;422;51.280;7.236;2023-07-13T00:17:46;4.70;;;2.40;;
870;SDS011;422;51.280;7.236;2023-07-13T00:20:13;8.20;;;3.27;;
870;SDS011;422;51.280;7.236;2023-07-13T00:22:41;5.10;;;2.50;;
870;SDS011;422;51.280;7.236;2023-07-13T00:25:08;4.30;;;3.00;;
870;SDS011;422;51.280;7.236;2023-07-13T00:27:35;7.30;;;2.80;;
870;SDS011;422;51.280;7.236;2023-07-13T00:30:05;4.90;;;2.77;;
870;SDS011;422;51.280;7.236;2023-07-13T00:32:34;5.37;;;2.80;;
870;SDS011;422;51.280;7.236;2023-07-13T00:35:01;7.37;;;2.77;;
870;SDS011;422;51.280;7.236;2023-07-13T00:37:29;7.60;;;3.10;;
870;SDS011;422;51.280;7.236;2023-07-13T00:39:57;4.73;;;2.40;;
870;SDS011;422;51.280;7.236;2023-07-13T00:42:24;5.63;;;2.80;;
870;SDS011;422;51.280;7.236;2023-07-13T00:45:00;4.47;;;2.57;;
870;SDS011;422;51.280;7.236;2023-07-13T00:47:33;4.70;;;2.80;;
870;SDS011;422;51.280;7.236;2023-07-13T00:50:00;5.93;;;3.10;;
870;SDS011;422;51.280;7.236;2023-07-13T00:52:30;4.53;;;2.33;;
870;SDS011;422;51.280;7.236;2023-07-13T00:54:57;4.67;;;2.47;;
870;SDS011;422;51.280;7.236;2023-07-13T00:57:24;4.17;;;2.73;;
870;SDS011;422;51.280;7.236;2023-07-13T00:59:54;4.73;;;2.87;;
870;SDS011;422;51.280;7.236;2023-07-13T01:02:27;4.87;;;2.80;;
870;SDS011;422;51.280;7.236;2023-07-13T01:04:55;4.50;;;2.70;;
870;SDS011;422;51.280;7.236;2023-07-13T01:07:23;6.57;;;2.53;;
870;SDS011;422;51.280;7.236;2023-07-13T01:09:50;4.80;;;2.70;;
870;SDS011;422;51.280;7.236;2023-07-13T01:12:17;5.63;;;2.93;;
870;SDS011;422;51.280;7.236;2023-07-13T01:14:45;5.80;;;3.07;;
870;SDS011;422;51.280;7.236;2023-07-13T01:17:19;7.93;;;3.43;;
870;SDS011;422;51.280;7.236;2023-07-13T01:19:49;4.30;;;3.20;;
870;SDS011;422;51.280;7.236;2023-07-13T01:25:13;5.73;;;3.27;;
870;SDS011;422;51.280;7.236;2023-07-13T01:27:40;7.90;;;2.93;;
870;SDS011;422;51.280;7.236;2023-07-13T01:30:07;3.17;;;2.67;;
870;SDS011;422;51.280;7.236;2023-07-13T01:32:35;4.33;;;2.77;;
870;SDS011;422;51.280;7.236;2023-07-13T01:35:02;5.43;;;2.70;;
870;SDS011;422;51.280;7.236;2023-07-13T01:37:30;6.43;;;3.33;;
870;SDS011;422;51.280;7.236;2023-07-13T01:39:59;4.90;;;2.80;;
870;SDS011;422;51.280;7.236;2023-07-13T01:42:27;4.20;;;2.90;;
870;SDS011;422;51.280;7.236;2023-07-13T01:44:54;7.50;;;2.90;;
870;SDS011;422;51.280;7.236;2023-07-13T01:47:22;5.33;;;2.40;;
870;SDS011;422;51.280;7.236;2023-07-13T01:49:51;3.53;;;2.70;;
870;SDS011;422;51.280;7.236;2023-07-13T01:52:18;8.27;;;3.40;;
870;SDS011;422;51.280;7.236;2023-07-13T01:54:45;4.10;;;2.70;;
870;SDS011;422;51.280;7.236;2023-07-13T01:57:13;4.40;;;2.93;;
870;SDS011;422;51.280;7.236;2023-07-13T01:59:41;7.57;;;2.87;;
870;SDS011;422;51.280;7.236;2023-07-13T02:02:08;5.87;;;3.63;;
870;SDS011;422;51.280;7.236;2023-07-13T02:04:36;9.50;;;3.40;;
870;SDS011;422;51.280;7.236;2023-07-13T02:07:03;10.77;;;3.47;;
870;SDS011;422;51.280;7.236;2023-07-13T02:09:31;4.70;;;2.87;;
870;SDS011;422;51.280;7.236;2023-07-13T02:11:58;8.20;;;3.00;;
870;SDS011;422;51.280;7.236;2023-07-13T02:14:26;8.57;;;3.40;;
870;SDS011;422;51.280;7.236;2023-07-13T02:16:54;7.27;;;2.90;;
870;SDS011;422;51.280;7.236;2023-07-13T02:19:21;7.07;;;3.03;;
870;SDS011;422;51.280;7.236;2023-07-13T02:21:48;6.80;;;2.47;;
870;SDS011;422;51.280;7.236;2023-07-13T02:24:15;5.53;;;2.80;;
870;SDS011;422;51.280;7.236;2023-07-13T02:26:44;4.70;;;3.00;;
870;SDS011;422;51.280;7.236;2023-07-13T02:29:11;5.43;;;2.50;;
870;SDS011;422;51.280;7.236;2023-07-13T02:31:40;7.77;;;3.20;;
870;SDS011;422;51.280;7.236;2023-07-13T02:34:07;5.47;;;2.93;;
870;SDS011;422;51.280;7.236;2023-07-13T02:36:34;5.03;;;3.13;;
870;SDS011;422;51.280;7.236;2023-07-13T02:39:01;6.60;;;3.00;;
870;SDS011;422;51.280;7.236;2023-07-13T02:41:30;4.70;;;3.10;;
870;SDS011;422;51.280;7.236;2023-07-13T02:43:58;3.23;;;2.60;;
870;SDS011;422;51.280;7.236;2023-07-13T02:46:29;5.47;;;2.63;;
870;SDS011;422;51.280;7.236;2023-07-13T02:48:57;5.33;;;2.77;;
870;SDS011;422;51.280;7.236;2023-07-13T02:51:24;4.30;;;2.80;;
870;SDS011;422;51.280;7.236;2023-07-13T02:53:51;4.03;;;2.77;;
870;SDS011;422;51.280;7.236;2023-07-13T02:56:19;5.80;;;3.27;;
870;SDS011;422;51.280;7.236;2023-07-13T02:58:48;5.13;;;2.70;;
870;SDS011;422;51.280;7.236;2023-07-13T03:01:15;4.90;;;2.37;;
870;SDS011;422;51.280;7.236;2023-07-13T03:03:44;6.23;;;2.93;;
870;SDS011;422;51.280;7.236;2023-07-13T03:06:13;7.40;;;2.77;;
870;SDS011;422;51.280;7.236;2023-07-13T03:08:41;4.40;;;2.97;;
870;SDS011;422;51.280;7.236;2023-07-13T03:11:10;6.60;;;2.73;;
870;SDS011;422;51.280;7.236;2023-07-13T03:13:40;4.40;;;2.50;;
870;SDS011;422;51.280;7.236;2023-07-13T03:16:09;5.67;;;3.27;;
870;SDS011;422;51.280;7.236;2023-07-13T03:18:36;6.70;;;2.80;;
870;SDS011;422;51.280;7.236;2023-07-13T03:21:04;6.40;;;2.50;;
870;SDS011;422;51.280;7.236;2023-07-13T03:23:33;5.37;;;3.23;;
870;SDS011;422;51.280;7.236;2023-07-13T03:26:02;6.87;;;3.10;;
870;SDS011;422;51.280;7.236;2023-07-13T03:28:30;8.57;;;3.43;;
870;SDS011;422;51.280;7.236;2023-07-13T03:31:01;10.63;;;3.77;;
870;SDS011;422;51.280;7.236;2023-07-13T03:33:29;5.77;;;3.47;;
870;SDS011;422;51.280;7.236;2023-07-13T03:35:57;9.70;;;3.20;;
870;SDS011;422;51.280;7.236;2023-07-13T03:38:25;6.90;;;2.83;;
870;SDS011;422;51.280;7.236;2023-07-13T03:40:53;7.20;;;3.30;;
870;SDS011;422;51.280;7.236;2023-07-13T03:43:20;5.10;;;2.90;;
870;SDS011;422;51.280;7.236;2023-07-13T03:45:48;5.83;;;2.87;;
870;SDS011;422;51.280;7.236;2023-07-13T03:48:15;8.27;;;3.07;;
870;SDS011;422;51.280;7.236;2023-07-13T03:50:42;6.27;;;2.83;;
870;SDS011;422;51.280;7.236;2023-07-13T03:53:09;11.90;;;3.10;;
870;SDS011;422;51.280;7.236;2023-07-13T03:55:36;4.57;;;2.80;;
870;SDS011;422;51.280;7.236;2023-07-13T04:00:54;7.17;;;3.30;;
870;SDS011;422;51.280;7.236;2023-07-13T04:03:22;6.80;;;3.10;;
870;SDS011;422;51.280;7.236;2023-07-13T04:05:50;6.50;;;3.33;;
870;SDS011;422;51.280;7.236;2023-07-13T04:08:17;5.30;;;3.30;;
870;SDS011;422;51.280;7.236;2023-07-13T04:10:44;6.53;;;2.87;;
870;SDS011;422;51.280;7.236;2023-07-13T04:13:11;5.00;;;3.33;;
870;SDS011;422;51.280;7.236;2023-07-13T04:15:41;6.73;;;2.73;;
870;SDS011;422;51.280;7.236;2023-07-13T04:18:08;10.23;;;3.43;;
870;SDS011;422;51.280;7.236;2023-07-13T04:20:35;7.83;;;3.73;;
870;SDS011;422;51.280;7.236;2023-07-13T04:23:03;6.03;;;2.77;;
870;SDS011;422;51.280;7.236;2023-07-13T04:25:30;5.67;;;3.00;;
870;SDS011;422;51.280;7.236;2023-07-13T04:27:57;6.23;;;2.87;;
870;SDS011;422;51.280;7.236;2023-07-13T04:30:24;9.90;;;2.53;;
870;SDS011;422;51.280;7.236;2023-07-13T04:32:53;5.33;;;3.33;;
870;SDS011;422;51.280;7.236;2023-07-13T04:35:20;6.40;;;2.70;;
870;SDS011;422;51.280;7.236;2023-07-13T04:37:47;8.73;;;3.43;;
870;SDS011;422;51.280;7.236;2023-07-13T04:40:15;7.43;;;2.90;;
870;SDS011;422;51.280;7.236;2023-07-13T04:42:43;4.77;;;2.70;;
870;SDS011;422;51.280;7.236;2023-07-13T04:45:11;5.90;;;3.17;;
870;SDS011;422;51.280;7.236;2023-07-13T04:47:38;5.03;;;3.23;;
870;SDS011;422;51.280;7.236;2023-07-13T04:50:07;5.53;;;3.33;;
870;SDS011;422;51.280;7.236;2023-07-13T04:52:36;8.10;;;3.20;;
870;SDS011;422;51.280;7.236;2023-07-13T04:55:02;6.40;;;3.20;;
870;SDS011;422;51.280;7.236;2023-07-13T04:57:30;4.80;;;2.80;;
870;SDS011;422;51.280;7.236;2023-07-13T05:00:00;6.67;;;3.30;;
870;SDS011;422;51.280;7.236;2023-07-13T05:02:31;4.60;;;3.10;;
870;SDS011;422;51.280;7.236;2023-07-13T05:04:58;8.40;;;3.20;;
870;SDS011;422;51.280;7.236;2023-07-13T05:07:27;5.83;;;3.10;;
870;SDS011;422;51.280;7.236;2023-07-13T05:09:54;4.93;;;3.00;;
870;SDS011;422;51.280;7.236;2023-07-13T05:12:21;5.60;;;3.17;;
870;SDS011;422;51.280;7.236;2023-07-13T05:14:48;11.70;;;4.40;;
870;SDS011;422;51.280;7.236;2023-07-13T05:17:15;7.17;;;2.70;;
870;SDS011;422;51.280;7.236;2023-07-13T05:19:42;6.03;;;3.30;;
870;SDS011;422;51.280;7.236;2023-07-13T05:22:09;5.60;;;3.40;;
870;SDS011;422;51.280;7.236;2023-07-13T05:24:38;8.40;;;3.63;;
870;SDS011;422;51.280;7.236;2023-07-13T05:27:05;6.03;;;3.07;;
870;SDS011;422;51.280;7.236;2023-07-13T05:29:32;8.37;;;3.90;;
870;SDS011;422;51.280;7.236;2023-07-13T05:31:59;6.97;;;3.50;;
870;SDS011;422;51.280;7.236;2023-07-13T05:34:26;4.47;;;2.97;;
870;SDS011;422;51.280;7.236;2023-07-13T05:36:54;6.17;;;3.40;;
870;SDS011;422;51.280;7.236;2023-07-13T05:39:21;7.20;;;3.20;;
870;SDS011;422;51.280;7.236;2023-07-13T05:41:50;8.23;;;3.37;;
870;SDS011;422;51.280;7.236;2023-07-13T05:44:17;8.50;;;3.80;;
870;SDS011;422;51.280;7.236;2023-07-13T05:46:44;5.33;;;3.30;;
870;SDS011;422;51.280;7.236;2023-07-13T05:49:11;10.10;;;3.57;;
870;SDS011;422;51.280;7.236;2023-07-13T05:51:38;5.77;;;4.00;;
870;SDS011;422;51.280;7.236;2023-07-13T05:54:05;5.37;;;3.50;;
870;SDS011;422;51.280;7.236;2023-07-13T05:56:32;6.53;;;3.80;;
870;SDS011;422;51.280;7.236;2023-07-13T05:59:01;8.37;;;4.17;;
870;SDS011;422;51.280;7.236;2023-07-13T06:01:29;5.80;;;3.50;;
870;SDS011;422;51.280;7.236;2023-07-13T06:03:56;7.83;;;4.37;;
870;SDS011;422;51.280;7.236;2023-07-13T06:06:23;9.23;;;3.70;;
870;SDS011;422;51.280;7.236;2023-07-13T06:08:51;9.80;;;4.43;;
870;SDS011;422;51.280;7.236;2023-07-13T06:11:19;9.87;;;4.00;;
870;SDS011;422;51.280;7.236;2023-07-13T06:13:47;4.80;;;2.77;;
870;SDS011;422;51.280;7.236;2023-07-13T06:16:16;11.20;;;3.73;;
870;SDS011;422;51.280;7.236;2023-07-13T06:18:44;7.67;;;4.37;;
870;SDS011;422;51.280;7.236;2023-07-13T06:21:11;8.53;;;4.07;;
870;SDS011;422;51.280;7.236;2023-07-13T06:23:40;8.30;;;4.23;;
870;SDS011;422;51.280;7.236;2023-07-13T06:26:08;8.40;;;4.13;;
870;SDS011;422;51.280;7.236;2023-07-13T06:28:36;10.27;;;4.40;;
870;SDS011;422;51.280;7.236;2023-07-13T06:31:05;10.10;;;4.13;;
870;SDS011;422;51.280;7.236;2023-07-13T06:33:34;8.70;;;3.50;;
870;SDS011;422;51.280;7.236;2023-07-13T06:36:02;5.47;;;3.47;;
870;SDS011;422;51.280;7.236;2023-07-13T06:38:30;6.37;;;3.30;;
870;SDS011;422;51.280;7.236;2023-07-13T06:40:57;9.20;;;4.27;;
870;SDS011;422;51.280;7.236;2023-07-13T06:43:25;7.10;;;3.63;;
870;SDS011;422;51.280;7.236;2023-07-13T06:45:54;9.60;;;3.73;;
870;SDS011;422;51.280;7.236;2023-07-13T06:48:22;7.50;;;4.17;;
870;SDS011;422;51.280;7.236;2023-07-13T06:50:51;8.57;;;3.60;;
870;SDS011;422;51.280;7.236;2023-07-13T06:53:19;7.50;;;4.43;;
870;SDS011;422;51.280;7.236;2023-07-13T06:55:46;11.27;;;3.77;;
870;SDS011;422;51.280;7.236;2023-07-13T06:58:14;11.03;;;5.20;;
870;SDS011;422;51.280;7.236;2023-07-13T07:00:42;6.40;;;3.27;;
870;SDS011;422;51.280;7.236;2023-07-13T07:03:09;6.20;;;4.30;;
870;SDS011;422;51.280;7.236;2023-07-13T07:05:36;5.47;;;3.60;;
870;SDS011;422;51.280;7.236;2023-07-13T07:08:05;6.97;;;4.23;;
870;SDS011;422;51.280;7.236;2023-07-13T07:10:33;13.13;;;4.10;;
870;SDS011;422;51.280;7.236;2023-07-13T07:13:01;7.93;;;4.83;;
870;SDS011;422;51.280;7.236;2023-07-13T07:15:29;7.30;;;4.30;;
870;SDS011;422;51.280;7.236;2023-07-13T07:17:56;8.50;;;4.67;;
870;SDS011;422;51.280;7.236;2023-07-13T07:20:23;6.37;;;3.90;;
870;SDS011;422;51.280;7.236;2023-07-13T07:22:51;8.47;;;4.80;;
870;SDS011;422;51.280;7.236;2023-07-13T07:25:20;8.33;;;3.90;;
870;SDS011;422;51.280;7.236;2023-07-13T07:27:47;7.07;;;4.03;;
870;SDS011;422;51.280;7.236;2023-07-13T07:30:14;5.13;;;3.80;;
870;SDS011;422;51.280;7.236;2023-07-13T07:32:41;9.30;;;4.67;;
870;SDS011;422;51.280;7.236;2023-07-13T07:35:08;6.20;;;4.20;;
870;SDS011;422;51.280;7.236;2023-07-13T07:37:35;10.23;;;4.30;;
870;SDS011;422;51.280;7.236;2023-07-13T07:40:02;7.87;;;4.20;;
870;SDS011;422;51.280;7.236;2023-07-13T07:42:31;6.73;;;3.90;;
870;SDS011;422;51.280;7.236;2023-07-13T07:44:58;8.40;;;4.57;;
870;SDS011;422;51.280;7.236;2023-07-13T07:47:26;9.30;;;3.80;;
870;SDS011;422;51.280;7.236;2023-07-13T07:49:53;7.40;;;3.77;;
870;SDS011;422;51.280;7.236;2023-07-13T07:52:20;13.07;;;3.87;;
870;SDS011;422;51.280;7.236;2023-07-13T07:54:47;9.43;;;4.00;;
870;SDS011;422;51.280;7.236;2023-07-13T07:57:14;7.43;;;3.87;;
870;SDS011;422;51.280;7.236;2023-07-13T07:59:43;10.63;;;3.90;;
870;SDS011;422;51.280;7.236;2023-07-13T08:02:10;12.20;;;4.73;;
870;SDS011;422;51.280;7.236;2023-07-13T08:04:37;6.07;;;3.40;;
870;SDS011;422;51.280;7.236;2023-07-13T08:07:05;12.80;;;4.90;;
870;SDS011;422;51.280;7.236;2023-07-13T08:09:33;5.90;;;4.00;;
870;SDS011;422;51.280;7.236;2023-07-13T08:12:00;7.03;;;4.40;;
870;SDS011;422;51.280;7.236;2023-07-13T08:14:27;9.47;;;3.90;;
870;SDS011;422;51.280;7.236;2023-07-13T08:16:56;9.47;;;4.27;;
870;SDS011;422;51.280;7.236;2023-07-13T08:19:23;5.40;;;4.20;;
870;SDS011;422;51.280;7.236;2023-07-13T08:21:50;5.70;;;4.03;;
870;SDS011;422;51.280;7.236;2023-07-13T08:24:17;5.40;;;4.70;;
870;SDS011;422;51.280;7.236;2023-07-13T08:26:48;7.03;;;3.60;;
870;SDS011;422;51.280;7.236;2023-07-13T08:29:15;8.80;;;4.57;;
870;SDS011;422;51.280;7.236;2023-07-13T08:31:42;5.73;;;4.23;;
870;SDS011;422;51.280;7.236;2023-07-13T08:34:11;7.73;;;4.30;;
870;SDS011;422;51.280;7.236;2023-07-13T08:36:40;6.57;;;4.10;;
870;SDS011;422;51.280;7.236;2023-07-13T08:39:07;5.40;;;3.80;;
870;SDS011;422;51.280;7.236;2023-07-13T08:41:34;5.63;;;4.13;;
870;SDS011;422;51.280;7.236;2023-07-13T08:44:03;9.37;;;4.60;;
870;SDS011;422;51.280;7.236;2023-07-13T08:46:34;8.33;;;4.37;;
870;SDS011;422;51.280;7.236;2023-07-13T08:49:05;5.07;;;4.10;;
870;SDS011;422;51.280;7.236;2023-07-13T08:51:39;8.63;;;3.70;;
870;SDS011;422;51.280;7.236;2023-07-13T08:54:15;5.97;;;4.60;;
870;SDS011;422;51.280;7.236;2023-07-13T08:56:47;8.73;;;4.90;;
870;SDS011;422;51.280;7.236;2023-07-13T08:59:18;11.03;;;4.23;;
870;SDS011;422;51.280;7.236;2023-07-13T09:01:52;9.03;;;4.17;;
870;SDS011;422;51.280;7.236;2023-07-13T09:04:44;10.93;;;4.53;;
870;SDS011;422;51.280;7.236;2023-07-13T09:07:16;5.23;;;3.90;;
870;SDS011;422;51.280;7.236;2023-07-13T09:09:50;6.40;;;3.77;;
870;SDS011;422;51.280;7.236;2023-07-13T09:12:25;11.73;;;4.50;;
870;SDS011;422;51.280;7.236;2023-07-13T09:14:59;7.63;;;4.13;;
870;SDS011;422;51.280;7.236;2023-07-13T09:17:32;8.50;;;3.80;;
870;SDS011;422;51.280;7.236;2023-07-13T09:20:04;6.60;;;3.90;;
870;SDS011;422;51.280;7.236;2023-07-13T09:22:39;9.23;;;4.53;;
870;SDS011;422;51.280;7.236;2023-07-13T09:25:12;9.83;;;4.50;;
870;SDS011;422;51.280;7.236;2023-07-13T09:27:53;7.37;;;4.00;;
870;SDS011;422;51.280;7.236;2023-07-13T09:30:26;8.53;;;4.70;;
870;SDS011;422;51.280;7.236;2023-07-13T09:33:03;5.10;;;3.53;;
870;SDS011;422;51.280;7.236;2023-07-13T09:35:32;6.70;;;3.90;;
870;SDS011;422;51.280;7.236;2023-07-13T09:38:04;5.97;;;2.80;;
870;SDS011;422;51.280;7.236;2023-07-13T09:40:42;8.07;;;4.27;;
870;SDS011;422;51.280;7.236;2023-07-13T09:43:15;7.60;;;4.20;;
870;SDS011;422;51.280;7.236;2023-07-13T09:45:45;6.73;;;3.60;;
870;SDS011;422;51.280;7.236;2023-07-13T09:48:14;7.43;;;3.73;;
870;SDS011;422;51.280;7.236;2023-07-13T09:50:45;7.20;;;3.20;;
870;SDS011;422;51.280;7.236;2023-07-13T09:53:13;6.27;;;3.90;;
870;SDS011;422;51.280;7.236;2023-07-13T09:55:42;9.30;;;4.10;;
870;SDS011;422;51.280;7.236;2023-07-13T09:58:11;7.20;;;4.10;;
870;SDS011;422;51.280;7.236;2023-07-13T10:00:40;5.90;;;3.23;;
870;SDS011;422;51.280;7.236;2023-07-13T10:03:16;7.27;;;3.33;;
870;SDS011;422;51.280;7.236;2023-07-13T10:05:48;7.10;;;4.10;;
870;SDS011;422;51.280;7.236;2023-07-13T10:08:17;6.30;;;3.70;;
870;SDS011;422;51.280;7.236;2023-07-13T10:10:51;4.77;;;3.70;;
870;SDS011;422;51.280;7.236;2023-07-13T10:13:27;5.13;;;3.63;;
870;SDS011;422;51.280;7.236;2023-07-13T10:15:57;5.77;;;3.40;;
870;SDS011;422;51.280;7.236;2023-07-13T10:18:25;6.07;;;3.53;;
870;SDS011;422;51.280;7.236;2023-07-13T10:20:59;7.57;;;3.73;;
870;SDS011;422;51.280;7.236;2023-07-13T10:23:36;4.13;;;3.30;;
870;SDS011;422;51.280;7.236;2023-07-13T10:26:04;4.50;;;3.90;;
870;SDS011;422;51.280;7.236;2023-07-13T10:28:38;6.60;;;4.13;;
870;SDS011;422;51.280;7.236;2023-07-13T10:31:10;6.80;;;3.23;;
870;SDS011;422;51.280;7.236;2023-07-13T10:33:39;5.57;;;3.20;;
870;SDS011;422;51.280;7.236;2023-07-13T10:36:12;7.57;;;4.17;;
870;SDS011;422;51.280;7.236;2023-07-13T10:38:43;5.00;;;3.50;;
870;SDS011;422;51.280;7.236;2023-07-13T10:41:12;11.43;;;4.43;;
870;SDS011;422;51.280;7.236;2023-07-13T10:43:45;5.80;;;3.10;;
870;SDS011;422;51.280;7.236;2023-07-13T10:46:16;6.87;;;4.00;;
870;SDS011;422;51.280;7.236;2023-07-13T10:48:46;10.03;;;3.63;;
870;SDS011;422;51.280;7.236;2023-07-13T10:51:18;7.00;;;3.50;;
870;SDS011;422;51.280;7.236;2023-07-13T10:53:47;7.87;;;3.43;;
870;SDS011;422;51.280;7.236;2023-07-13T10:56:34;5.40;;;3.40;;
870;SDS011;422;51.280;7.236;2023-07-13T10:59:02;5.43;;;3.43;;
870;SDS011;422;51.280;7.236;2023-07-13T11:01:39;5.80;;;3.03;;
870;SDS011;422;51.280;7.236;2023-07-13T11:04:12;7.80;;;3.20;;
870;SDS011;422;51.280;7.236;2023-07-13T11:06:42;7.00;;;3.47;;
870;SDS011;422;51.280;7.236;2023-07-13T11:09:30;4.50;;;3.37;;
870;SDS011;422;51.280;7.236;2023-07-13T11:12:26;6.67;;;3.23;;
870;SDS011;422;51.280;7.236;2023-07-13T11:15:04;5.70;;;3.70;;
870;SDS011;422;51.280;7.236;2023-07-13T11:17:37;5.63;;;3.60;;
870;SDS011;422;51.280;7.236;2023-07-13T11:20:24;4.80;;;3.10;;
870;SDS011;422;51.280;7.236;2023-07-13T11:25:57;6.33;;;3.10;;
870;SDS011;422;51.280;7.236;2023-07-13T11:28:26;4.60;;;3.47;;
870;SDS011;422;51.280;7.236;2023-07-13T11:31:02;8.60;;;3.10;;
870;SDS011;422;51.280;7.236;2023-07-13T11:33:49;7.57;;;3.80;;
870;SDS011;422;51.280;7.236;2023-07-13T11:36:30;7.77;;;3.40;;
870;SDS011;422;51.280;7.236;2023-07-13T11:39:05;8.07;;;3.50;;
870;SDS011;422;51.280;7.236;2023-07-13T11:41:43;7.30;;;3.43;;
870;SDS011;422;51.280;7.236;2023-07-13T11:44:13;9.10;;;4.13;;
870;SDS011;422;51.280;7.236;2023-07-13T11:46:46;6.47;;;3.83;;
870;SDS011;422;51.280;7.236;2023-07-13T11:49:16;6.93;;;3.60;;
870;SDS011;422;51.280;7.236;2023-07-13T11:51:44;7.10;;;3.57;;
870;SDS011;422;51.280;7.236;2023-07-13T11:54:23;4.53;;;2.90;;
870;SDS011;422;51.280;7.236;2023-07-13T11:56:52;5.93;;;2.73;;
870;SDS011;422;51.280;7.236;2023-07-13T11:59:21;4.33;;;2.90;;
870;SDS011;422;51.280;7.236;2023-07-13T12:01:49;8.87;;;3.60;;
870;SDS011;422;51.280;7.236;2023-07-13T12:04:20;3.77;;;2.80;;
870;SDS011;422;51.280;7.236;2023-07-13T12:06:54;5.50;;;3.50;;
870;SDS011;422;51.280;7.236;2023-07-13T12:09:25;6.00;;;3.37;;
870;SDS011;422;51.280;7.236;2023-07-13T12:11:55;4.13;;;3.20;;
870;SDS011;422;51.280;7.236;2023-07-13T12:14:25;5.33;;;3.47;;
870;SDS011;422;51.280;7.236;2023-07-13T12:16:52;3.60;;;3.30;;
870;SDS011;422;51.280;7.236;2023-07-13T12:19:25;5.60;;;3.17;;
870;SDS011;422;51.280;7.236;2023-07-13T12:21:53;3.50;;;3.20;;
870;SDS011;422;51.280;7.236;2023-07-13T12:24:22;3.83;;;2.73;;
870;SDS011;422;51.280;7.236;2023-07-13T12:26:52;6.40;;;3.60;;
870;SDS011;422;51.280;7.236;2023-07-13T12:29:21;5.07;;;2.93;;
870;SDS011;422;51.280;7.236;2023-07-13T12:31:49;4.27;;;2.70;;
870;SDS011;422;51.280;7.236;2023-07-13T12:34:18;5.47;;;2.90;;
870;SDS011;422;51.280;7.236;2023-07-13T12:36:47;4.97;;;3.40;;
870;SDS011;422;51.280;7.236;2023-07-13T12:39:18;5.80;;;3.20;;
870;SDS011;422;51.280;7.236;2023-07-13T12:41:50;4.60;;;3.00;;
870;SDS011;422;51.280;7.236;2023-07-13T12:44:21;6.30;;;3.17;;
870;SDS011;422;51.280;7.236;2023-07-13T12:46:52;3.90;;;2.97;;
870;SDS011;422;51.280;7.236;2023-07-13T12:49:23;4.07;;;3.20;;
870;SDS011;422;51.280;7.236;2023-07-13T12:51:55;3.83;;;3.20;;
870;SDS011;422;51.280;7.236;2023-07-13T12:54:24;8.90;;;3.00;;
870;SDS011;422;51.280;7.236;2023-07-13T12:56:53;5.30;;;3.27;;
870;SDS011;422;51.280;7.236;2023-07-13T12:59:23;5.20;;;2.90;;
870;SDS011;422;51.280;7.236;2023-07-13T13:01:55;4.63;;;3.20;;
870;SDS011;422;51.280;7.236;2023-07-13T13:04:23;6.10;;;3.00;;
870;SDS011;422;51.280;7.236;2023-07-13T13:07:00;8.87;;;3.93;;
870;SDS011;422;51.280;7.236;2023-07-13T13:09:28;4.40;;;3.00;;
870;SDS011;422;51.280;7.236;2023-07-13T13:11:57;8.53;;;3.57;;
870;SDS011;422;51.280;7.236;2023-07-13T13:14:24;6.53;;;4.07;;
870;SDS011;422;51.280;7.236;2023-07-13T13:16:52;6.23;;;3.70;;
870;SDS011;422;51.280;7.236;2023-07-13T13:19:20;5.93;;;2.83;;
870;SDS011;422;51.280;7.236;2023-07-13T13:21:49;4.00;;;3.13;;
870;SDS011;422;51.280;7.236;2023-07-13T13:24:20;5.03;;;3.40;;
870;SDS011;422;51.280;7.236;2023-07-13T13:26:48;5.50;;;3.37;;
870;SDS011;422;51.280;7.236;2023-07-13T13:29:23;5.10;;;3.07;;
870;SDS011;422;51.280;7.236;2023-07-13T13:31:51;3.93;;;2.90;;
870;SDS011;422;51.280;7.236;2023-07-13T13:34:19;4.43;;;3.37;;
870;SDS011;422;51.280;7.236;2023-07-13T13:36:48;5.67;;;2.83;;
870;SDS011;422;51.280;7.236;2023-07-13T13:39:20;3.40;;;2.67;;
870;SDS011;422;51.280;7.236;2023-07-13T13:41:49;4.20;;;2.83;;
870;SDS011;422;51.280;7.236;2023-07-13T13:44:18;3.53;;;2.73;;
870;SDS011;422;51.280;7.236;2023-07-13T13:46:48;5.00;;;2.83;;
870;SDS011;422;51.280;7.236;2023-07-13T13:49:19;3.20;;;2.77;;
870;SDS011;422;51.280;7.236;2023-07-13T13:51:49;6.30;;;3.00;;
870;SDS011;422;51.280;7.236;2023-07-13T13:54:17;4.70;;;2.50;;
870;SDS011;422;51.280;7.236;2023-07-13T13:56:46;5.73;;;2.47;;
870;SDS011;422;51.280;7.236;2023-07-13T13:59:14;4.40;;;3.10;;
870;SDS011;422;51.280;7.236;2023-07-13T14:01:42;6.57;;;3.43;;
870;SDS011;422;51.280;7.236;2023-07-13T14:04:15;5.90;;;3.00;;
870;SDS011;422;51.280;7.236;2023-07-13T14:06:44;3.67;;;3.17;;
870;SDS011;422;51.280;7.236;2023-07-13T14:09:13;4.67;;;2.97;;
870;SDS011;422;51.280;7.236;2023-07-13T14:11:43;5.23;;;3.03;;
870;SDS011;422;51.280;7.236;2023-07-13T14:14:12;3.83;;;2.97;;
870;SDS011;422;51.280;7.236;2023-07-13T14:16:43;7.83;;;3.90;;
870;SDS011;422;51.280;7.236;2023-07-13T14:19:11;4.50;;;2.90;;
870;SDS011;422;51.280;7.236;2023-07-13T14:21:41;6.90;;;3.33;;
870;SDS011;422;51.280;7.236;2023-07-13T14:24:09;5.60;;;2.67;;
870;SDS011;422;51.280;7.236;2023-07-13T14:26:36;4.40;;;2.90;;
870;SDS011;422;51.280;7.236;2023-07-13T14:29:10;7.80;;;2.70;;
870;SDS011;422;51.280;7.236;2023-07-13T14:31:39;3.83;;;2.80;;
870;SDS011;422;51.280;7.236;2023-07-13T14:34:07;6.90;;;3.20;;
870;SDS011;422;51.280;7.236;2023-07-13T14:36:40;4.93;;;2.83;;
870;SDS011;422;51.280;7.236;2023-07-13T14:39:11;5.30;;;3.17;;
870;SDS011;422;51.280;7.236;2023-07-13T14:41:40;5.10;;;3.00;;
870;SDS011;422;51.280;7.236;2023-07-13T14:44:11;4.47;;;3.20;;
870;SDS011;422;51.280;7.236;2023-07-13T14:46:39;4.57;;;3.50;;
870;SDS011;422;51.280;7.236;2023-07-13T14:49:07;4.97;;;2.67;;
870;SDS011;422;51.280;7.236;2023-07-13T14:51:44;4.53;;;3.00;;
870;SDS011;422;51.280;7.236;2023-07-13T14:54:11;3.80;;;3.00;;
870;SDS011;422;51.280;7.236;2023-07-13T14:56:38;5.13;;;3.40;;
870;SDS011;422;51.280;7.236;2023-07-13T14:59:05;3.90;;;3.10;;
870;SDS011;422;51.280;7.236;2023-07-13T15:01:33;4.80;;;2.90;;
870;SDS011;422;51.280;7.236;2023-07-13T15:04:01;3.63;;;3.07;;
870;SDS011;422;51.280;7.236;2023-07-13T15:06:29;6.20;;;3.83;;
870;SDS011;422;51.280;7.236;2023-07-13T15:08:58;4.73;;;3.13;;
870;SDS011;422;51.280;7.236;2023-07-13T15:11:25;4.37;;;3.27;;
870;SDS011;422;51.280;7.236;2023-07-13T15:13:53;3.83;;;3.13;;
870;SDS011;422;51.280;7.236;2023-07-13T15:16:21;4.17;;;2.73;;
870;SDS011;422;51.280;7.236;2023-07-13T15:18:50;4.40;;;3.00;;
870;SDS011;422;51.280;7.236;2023-07-13T15:21:19;3.70;;;2.70;;
870;SDS011;422;51.280;7.236;2023-07-13T15:23:48;5.20;;;3.27;;
870;SDS011;422;51.280;7.236;2023-07-13T15:26:17;5.90;;;3.40;;
870;SDS011;422;51.280;7.236;2023-07-13T15:28:45;7.63;;;3.27;;
870;SDS011;422;51.280;7.236;2023-07-13T15:31:20;7.50;;;4.10;;
870;SDS011;422;51.280;7.236;2023-07-13T15:33:48;6.27;;;2.77;;
870;SDS011;422;51.280;7.236;2023-07-13T15:36:17;4.33;;;3.10;;
870;SDS011;422;51.280;7.236;2023-07-13T15:38:45;5.57;;;3.03;;
870;SDS011;422;51.280;7.236;2023-07-13T15:41:19;5.90;;;3.73;;
870;SDS011;422;51.280;7.236;2023-07-13T15:43:47;5.37;;;3.10;;
870;SDS011;422;51.280;7.236;2023-07-13T15:46:15;4.57;;;3.43;;
870;SDS011;422;51.280;7.236;2023-07-13T15:48:44;5.67;;;3.50;;
870;SDS011;422;51.280;7.236;2023-07-13T15:51:14;5.97;;;3.70;;
870;SDS011;422;51.280;7.236;2023-07-13T15:53:47;5.03;;;3.10;;
870;SDS011;422;51.280;7.236;2023-07-13T15:56:18;5.40;;;3.37;;
870;SDS011;422;51.280;7.236;2023-07-13T15:58:47;5.27;;;3.97;;
870;SDS011;422;51.280;7.236;2023-07-13T16:01:14;5.40;;;3.40;;
870;SDS011;422;51.280;7.236;2023-07-13T16:03:42;5.87;;;4.37;;
870;SDS011;422;51.280;7.236;2023-07-13T16:06:13;6.27;;;4.23;;